sensor_id;sensor_type;location;lat;lon;timestamp;temperature;humidity
2867;DHT22;1441;48.886;8.728;2022-10-31T00:00:17;12.50;99.90
2867;DHT22;1441;48.886;8.728;2022-10-31T00:02:43;12.50;99.90
2867;DHT22;1441;48.886;8.728;2022-10-31T00:05:09;12.50;99.90
2867;DHT22;1441;48.886;8.728;2022-10-31T00:07:34;12.70;99.90
2867;DHT22;1441;48.886;8.728;2022-10-31T00:10:00;12.80;99.90
2867;DHT22;1441;48.886;8.728;2022-10-31T00:12:26;12.70;99.90
2867;DHT22;1441;48.886;8.728;2022-10-31T00:14:51;12.60;99.90
2867;DHT22;1441;48.886;8.728;2022-10-31T00:17:17;12.50;99.90
2867;DHT22;1441;48.886;8.728;2022-10-31T00:19:43;12.50;99.90
2867;DHT22;1441;48.886;8.728;2022-10-31T00:22:08;12.60;99.90
2867;DHT22;1441;48.886;8.728;2022-10-31T00:24:34;12.50;99.90
2867;DHT22;1441;48.886;8.728;2022-10-31T00:27:00;12.50;99.90
2867;DHT22;1441;48.886;8.728;2022-10-31T00:29:25;12.60;99.90
2867;DHT22;1441;48.886;8.728;2022-10-31T00:31:52;12.60;99.90
2867;DHT22;1441;48.886;8.728;2022-10-31T00:34:18;12.50;99.90
2867;DHT22;1441;48.886;8.728;2022-10-31T00:36:43;12.40;99.90
2867;DHT22;1441;48.886;8.728;2022-10-31T00:39:09;12.30;99.90
2867;DHT22;1441;48.886;8.728;2022-10-31T00:41:35;12.20;99.90
2867;DHT22;1441;48.886;8.728;2022-10-31T00:44:00;12.30;99.90
2867;DHT22;1441;48.886;8.728;2022-10-31T00:46:26;12.30;99.90
2867;DHT22;1441;48.886;8.728;2022-10-31T00:48:52;12.20;99.90
2867;DHT22;1441;48.886;8.728;2022-10-31T00:51:18;12.10;99.90
2867;DHT22;1441;48.886;8.728;2022-10-31T00:53:43;12.20;99.90
2867;DHT22;1441;48.886;8.728;2022-10-31T00:56:09;12.30;99.90
2867;DHT22;1441;48.886;8.728;2022-10-31T00:58:35;12.30;99.90
2867;DHT22;1441;48.886;8.728;2022-10-31T01:01:01;12.20;99.90
2867;DHT22;1441;48.886;8.728;2022-10-31T01:03:29;12.30;99.90
2867;DHT22;1441;48.886;8.728;2022-10-31T01:06:07;12.30;99.90
2867;DHT22;1441;48.886;8.728;2022-10-31T01:08:34;12.20;99.90
2867;DHT22;1441;48.886;8.728;2022-10-31T01:11:18;12.10;99.90
2867;DHT22;1441;48.886;8.728;2022-10-31T01:13:44;12.10;99.90
2867;DHT22;1441;48.886;8.728;2022-10-31T01:16:13;12.10;99.90
2867;DHT22;1441;48.886;8.728;2022-10-31T01:18:39;12.10;99.90
2867;DHT22;1441;48.886;8.728;2022-10-31T01:21:08;12.10;99.90
2867;DHT22;1441;48.886;8.728;2022-10-31T01:23:34;12.00;99.90
2867;DHT22;1441;48.886;8.728;2022-10-31T01:28:38;11.90;99.90
2867;DHT22;1441;48.886;8.728;2022-10-31T01:31:08;12.00;99.90
2867;DHT22;1441;48.886;8.728;2022-10-31T01:33:35;12.00;99.90
2867;DHT22;1441;48.886;8.728;2022-10-31T01:36:01;11.90;99.90
2867;DHT22;1441;48.886;8.728;2022-10-31T01:38:27;11.90;99.90
2867;DHT22;1441;48.886;8.728;2022-10-31T01:40:53;12.00;99.90
2867;DHT22;1441;48.886;8.728;2022-10-31T01:43:19;12.00;99.90
2867;DHT22;1441;48.886;8.728;2022-10-31T01:45:50;12.00;99.90
2867;DHT22;1441;48.886;8.728;2022-10-31T01:48:20;11.90;99.90
2867;DHT22;1441;48.886;8.728;2022-10-31T01:50:48;11.90;99.90
2867;DHT22;1441;48.886;8.728;2022-10-31T01:53:17;12.00;99.90
2867;DHT22;1441;48.886;8.728;2022-10-31T01:55:45;12.00;99.90
2867;DHT22;1441;48.886;8.728;2022-10-31T01:58:14;11.90;99.90
2867;DHT22;1441;48.886;8.728;2022-10-31T02:00:43;11.80;99.90
2867;DHT22;1441;48.886;8.728;2022-10-31T02:03:11;11.70;99.90
2867;DHT22;1441;48.886;8.728;2022-10-31T02:05:37;11.70;99.90
2867;DHT22;1441;48.886;8.728;2022-10-31T02:10:42;11.70;99.90
2867;DHT22;1441;48.886;8.728;2022-10-31T02:13:09;11.80;99.90
2867;DHT22;1441;48.886;8.728;2022-10-31T02:15:36;11.80;99.90
2867;DHT22;1441;48.886;8.728;2022-10-31T02:18:03;11.70;99.90
2867;DHT22;1441;48.886;8.728;2022-10-31T02:20:45;11.60;99.90
2867;DHT22;1441;48.886;8.728;2022-10-31T02:31:19;11.70;99.90
2867;DHT22;1441;48.886;8.728;2022-10-31T02:34:24;11.60;99.90
2867;DHT22;1441;48.886;8.728;2022-10-31T02:36:57;11.50;99.90
2867;DHT22;1441;48.886;8.728;2022-10-31T02:39:29;11.40;99.90
2867;DHT22;1441;48.886;8.728;2022-10-31T02:42:16;11.40;99.90
2867;DHT22;1441;48.886;8.728;2022-10-31T02:45:05;11.20;99.90
2867;DHT22;1441;48.886;8.728;2022-10-31T02:47:35;11.20;99.90
2867;DHT22;1441;48.886;8.728;2022-10-31T02:50:27;11.10;99.90
2867;DHT22;1441;48.886;8.728;2022-10-31T02:52:54;11.20;99.90
2867;DHT22;1441;48.886;8.728;2022-10-31T02:57:54;11.20;99.90
2867;DHT22;1441;48.886;8.728;2022-10-31T03:00:20;11.20;99.90
2867;DHT22;1441;48.886;8.728;2022-10-31T03:03:05;11.20;99.90
2867;DHT22;1441;48.886;8.728;2022-10-31T03:06:24;11.10;99.90
2867;DHT22;1441;48.886;8.728;2022-10-31T03:08:45;11.10;99.90
2867;DHT22;1441;48.886;8.728;2022-10-31T03:11:13;11.00;99.90
2867;DHT22;1441;48.886;8.728;2022-10-31T03:18:58;11.10;99.90
2867;DHT22;1441;48.886;8.728;2022-10-31T03:21:35;10.90;99.90
2867;DHT22;1441;48.886;8.728;2022-10-31T03:24:02;10.90;99.90
2867;DHT22;1441;48.886;8.728;2022-10-31T03:26:30;10.90;99.90
2867;DHT22;1441;48.886;8.728;2022-10-31T03:29:03;10.80;99.90
2867;DHT22;1441;48.886;8.728;2022-10-31T03:31:33;10.90;99.90
2867;DHT22;1441;48.886;8.728;2022-10-31T03:34:00;10.80;99.90
2867;DHT22;1441;48.886;8.728;2022-10-31T03:36:30;10.80;99.90
2867;DHT22;1441;48.886;8.728;2022-10-31T03:39:00;10.80;99.90
2867;DHT22;1441;48.886;8.728;2022-10-31T03:41:31;10.90;99.90
2867;DHT22;1441;48.886;8.728;2022-10-31T03:44:16;10.80;99.90
2867;DHT22;1441;48.886;8.728;2022-10-31T03:46:43;10.80;99.90
2867;DHT22;1441;48.886;8.728;2022-10-31T03:49:09;11.00;99.90
2867;DHT22;1441;48.886;8.728;2022-10-31T03:51:49;11.00;99.90
2867;DHT22;1441;48.886;8.728;2022-10-31T03:54:28;10.90;99.90
2867;DHT22;1441;48.886;8.728;2022-10-31T03:57:07;10.90;99.90
2867;DHT22;1441;48.886;8.728;2022-10-31T03:59:44;10.90;99.90
2867;DHT22;1441;48.886;8.728;2022-10-31T04:02:15;10.90;99.90
2867;DHT22;1441;48.886;8.728;2022-10-31T04:04:44;10.90;99.90
2867;DHT22;1441;48.886;8.728;2022-10-31T04:07:11;10.90;99.90
2867;DHT22;1441;48.886;8.728;2022-10-31T04:09:40;11.00;99.90
2867;DHT22;1441;48.886;8.728;2022-10-31T04:12:08;11.00;99.90
2867;DHT22;1441;48.886;8.728;2022-10-31T04:14:38;11.00;99.90
2867;DHT22;1441;48.886;8.728;2022-10-31T04:17:09;11.00;99.90
2867;DHT22;1441;48.886;8.728;2022-10-31T04:19:36;10.90;99.90
2867;DHT22;1441;48.886;8.728;2022-10-31T04:22:01;10.90;99.90
2867;DHT22;1441;48.886;8.728;2022-10-31T04:24:27;10.80;99.90
2867;DHT22;1441;48.886;8.728;2022-10-31T04:26:52;10.80;99.90
2867;DHT22;1441;48.886;8.728;2022-10-31T04:29:18;10.80;99.90
2867;DHT22;1441;48.886;8.728;2022-10-31T04:31:44;10.80;99.90
2867;DHT22;1441;48.886;8.728;2022-10-31T04:34:09;10.80;99.90
2867;DHT22;1441;48.886;8.728;2022-10-31T04:36:35;10.80;99.90
2867;DHT22;1441;48.886;8.728;2022-10-31T04:39:00;10.80;99.90
2867;DHT22;1441;48.886;8.728;2022-10-31T04:41:26;10.80;99.90
2867;DHT22;1441;48.886;8.728;2022-10-31T04:43:51;10.80;99.90
2867;DHT22;1441;48.886;8.728;2022-10-31T04:46:17;10.70;99.90
2867;DHT22;1441;48.886;8.728;2022-10-31T04:48:43;10.70;99.90
2867;DHT22;1441;48.886;8.728;2022-10-31T04:51:08;10.70;99.90
2867;DHT22;1441;48.886;8.728;2022-10-31T04:53:34;10.70;99.90
2867;DHT22;1441;48.886;8.728;2022-10-31T04:55:59;10.60;99.90
2867;DHT22;1441;48.886;8.728;2022-10-31T04:58:26;10.70;99.90
2867;DHT22;1441;48.886;8.728;2022-10-31T05:00:53;10.70;99.90
2867;DHT22;1441;48.886;8.728;2022-10-31T05:03:19;10.70;99.90
2867;DHT22;1441;48.886;8.728;2022-10-31T05:05:45;10.70;99.90
2867;DHT22;1441;48.886;8.728;2022-10-31T05:08:10;10.60;99.90
2867;DHT22;1441;48.886;8.728;2022-10-31T05:10:36;10.60;99.90
2867;DHT22;1441;48.886;8.728;2022-10-31T05:13:03;10.50;99.90
2867;DHT22;1441;48.886;8.728;2022-10-31T05:15:29;10.50;99.90
2867;DHT22;1441;48.886;8.728;2022-10-31T05:17:56;10.50;99.90
2867;DHT22;1441;48.886;8.728;2022-10-31T05:20:25;10.50;99.90
2867;DHT22;1441;48.886;8.728;2022-10-31T05:22:55;10.50;99.90
2867;DHT22;1441;48.886;8.728;2022-10-31T05:25:23;10.40;99.90
2867;DHT22;1441;48.886;8.728;2022-10-31T05:27:50;10.40;99.90
2867;DHT22;1441;48.886;8.728;2022-10-31T05:30:19;10.40;99.90
2867;DHT22;1441;48.886;8.728;2022-10-31T05:32:47;10.50;99.90
2867;DHT22;1441;48.886;8.728;2022-10-31T05:35:30;10.60;99.90
2867;DHT22;1441;48.886;8.728;2022-10-31T05:37:57;10.70;99.90
2867;DHT22;1441;48.886;8.728;2022-10-31T05:40:23;10.70;99.90
2867;DHT22;1441;48.886;8.728;2022-10-31T05:42:53;10.70;99.90
2867;DHT22;1441;48.886;8.728;2022-10-31T05:45:20;10.60;99.90
2867;DHT22;1441;48.886;8.728;2022-10-31T05:48:04;10.50;99.90
2867;DHT22;1441;48.886;8.728;2022-10-31T05:50:31;10.40;99.90
2867;DHT22;1441;48.886;8.728;2022-10-31T05:52:59;10.40;99.90
2867;DHT22;1441;48.886;8.728;2022-10-31T05:55:25;10.40;99.90
2867;DHT22;1441;48.886;8.728;2022-10-31T05:57:52;10.40;99.90
2867;DHT22;1441;48.886;8.728;2022-10-31T06:00:19;10.30;99.90
2867;DHT22;1441;48.886;8.728;2022-10-31T06:02:44;10.20;99.90
2867;DHT22;1441;48.886;8.728;2022-10-31T06:05:10;10.20;99.90
2867;DHT22;1441;48.886;8.728;2022-10-31T06:07:36;10.20;99.90
2867;DHT22;1441;48.886;8.728;2022-10-31T06:10:03;10.20;99.90
2867;DHT22;1441;48.886;8.728;2022-10-31T06:12:30;10.30;99.90
2867;DHT22;1441;48.886;8.728;2022-10-31T06:14:55;10.40;99.90
2867;DHT22;1441;48.886;8.728;2022-10-31T06:17:21;10.50;99.90
2867;DHT22;1441;48.886;8.728;2022-10-31T06:19:47;10.40;99.90
2867;DHT22;1441;48.886;8.728;2022-10-31T06:22:12;10.30;99.90
2867;DHT22;1441;48.886;8.728;2022-10-31T06:24:38;10.30;99.90
2867;DHT22;1441;48.886;8.728;2022-10-31T06:27:04;10.30;99.90
2867;DHT22;1441;48.886;8.728;2022-10-31T06:29:30;10.30;99.90
2867;DHT22;1441;48.886;8.728;2022-10-31T06:31:55;10.30;99.90
2867;DHT22;1441;48.886;8.728;2022-10-31T06:34:24;10.40;99.90
2867;DHT22;1441;48.886;8.728;2022-10-31T06:36:50;10.40;99.90
2867;DHT22;1441;48.886;8.728;2022-10-31T06:39:15;10.40;99.90
2867;DHT22;1441;48.886;8.728;2022-10-31T06:41:41;10.40;99.90
2867;DHT22;1441;48.886;8.728;2022-10-31T06:44:07;10.60;99.90
2867;DHT22;1441;48.886;8.728;2022-10-31T06:46:33;10.80;99.90
2867;DHT22;1441;48.886;8.728;2022-10-31T06:48:59;10.80;99.90
2867;DHT22;1441;48.886;8.728;2022-10-31T06:51:24;10.90;99.90
2867;DHT22;1441;48.886;8.728;2022-10-31T06:53:50;10.90;99.90
2867;DHT22;1441;48.886;8.728;2022-10-31T06:56:16;11.20;99.90
2867;DHT22;1441;48.886;8.728;2022-10-31T06:58:41;11.20;99.90
2867;DHT22;1441;48.886;8.728;2022-10-31T07:01:07;11.50;99.90
2867;DHT22;1441;48.886;8.728;2022-10-31T07:03:32;11.60;99.90
2867;DHT22;1441;48.886;8.728;2022-10-31T07:05:58;11.70;99.90
2867;DHT22;1441;48.886;8.728;2022-10-31T07:08:24;11.70;99.90
2867;DHT22;1441;48.886;8.728;2022-10-31T07:10:54;11.70;99.90
2867;DHT22;1441;48.886;8.728;2022-10-31T07:13:20;11.90;99.90
2867;DHT22;1441;48.886;8.728;2022-10-31T07:15:51;12.00;99.90
2867;DHT22;1441;48.886;8.728;2022-10-31T07:18:17;12.10;99.90
2867;DHT22;1441;48.886;8.728;2022-10-31T07:20:43;12.20;99.90
2867;DHT22;1441;48.886;8.728;2022-10-31T07:23:12;12.30;99.90
2867;DHT22;1441;48.886;8.728;2022-10-31T07:25:38;12.10;99.90
2867;DHT22;1441;48.886;8.728;2022-10-31T07:28:05;12.00;99.90
2867;DHT22;1441;48.886;8.728;2022-10-31T07:30:30;11.90;99.90
2867;DHT22;1441;48.886;8.728;2022-10-31T07:32:56;11.90;99.90
2867;DHT22;1441;48.886;8.728;2022-10-31T07:35:26;11.90;99.90
2867;DHT22;1441;48.886;8.728;2022-10-31T07:37:52;12.00;99.90
2867;DHT22;1441;48.886;8.728;2022-10-31T07:40:18;12.10;99.90
2867;DHT22;1441;48.886;8.728;2022-10-31T07:42:46;12.20;99.90
2867;DHT22;1441;48.886;8.728;2022-10-31T07:45:13;12.30;99.90
2867;DHT22;1441;48.886;8.728;2022-10-31T07:47:49;12.40;99.90
2867;DHT22;1441;48.886;8.728;2022-10-31T07:50:17;12.50;99.90
2867;DHT22;1441;48.886;8.728;2022-10-31T07:52:43;12.80;99.70
2867;DHT22;1441;48.886;8.728;2022-10-31T07:55:09;13.10;98.30
2867;DHT22;1441;48.886;8.728;2022-10-31T07:57:35;13.00;98.50
2867;DHT22;1441;48.886;8.728;2022-10-31T08:00:09;12.90;99.50
2867;DHT22;1441;48.886;8.728;2022-10-31T08:02:35;12.90;99.80
2867;DHT22;1441;48.886;8.728;2022-10-31T08:05:01;12.90;99.70
2867;DHT22;1441;48.886;8.728;2022-10-31T08:07:35;13.00;99.90
2867;DHT22;1441;48.886;8.728;2022-10-31T08:10:01;13.00;99.90
2867;DHT22;1441;48.886;8.728;2022-10-31T08:12:26;13.00;99.90
2867;DHT22;1441;48.886;8.728;2022-10-31T08:14:52;13.10;99.90
2867;DHT22;1441;48.886;8.728;2022-10-31T08:17:17;13.10;99.80
2867;DHT22;1441;48.886;8.728;2022-10-31T08:19:43;13.20;99.60
2867;DHT22;1441;48.886;8.728;2022-10-31T08:22:08;13.30;99.00
2867;DHT22;1441;48.886;8.728;2022-10-31T08:24:34;13.30;99.10
2867;DHT22;1441;48.886;8.728;2022-10-31T08:27:00;13.40;98.80
2867;DHT22;1441;48.886;8.728;2022-10-31T08:29:25;13.40;99.10
2867;DHT22;1441;48.886;8.728;2022-10-31T08:31:51;13.50;99.10
2867;DHT22;1441;48.886;8.728;2022-10-31T08:34:16;13.50;98.40
2867;DHT22;1441;48.886;8.728;2022-10-31T08:36:42;13.60;98.20
2867;DHT22;1441;48.886;8.728;2022-10-31T08:39:10;13.70;97.90
2867;DHT22;1441;48.886;8.728;2022-10-31T08:41:35;13.60;97.80
2867;DHT22;1441;48.886;8.728;2022-10-31T08:44:01;13.60;97.80
2867;DHT22;1441;48.886;8.728;2022-10-31T08:46:26;13.70;98.10
2867;DHT22;1441;48.886;8.728;2022-10-31T08:48:52;13.80;98.40
2867;DHT22;1441;48.886;8.728;2022-10-31T08:51:17;13.80;98.40
2867;DHT22;1441;48.886;8.728;2022-10-31T08:53:43;13.90;98.20
2867;DHT22;1441;48.886;8.728;2022-10-31T08:56:09;14.00;98.10
2867;DHT22;1441;48.886;8.728;2022-10-31T08:58:34;14.00;98.00
2867;DHT22;1441;48.886;8.728;2022-10-31T09:01:01;14.10;97.80
2867;DHT22;1441;48.886;8.728;2022-10-31T09:03:30;14.10;97.70
2867;DHT22;1441;48.886;8.728;2022-10-31T09:06:00;14.20;97.70
2867;DHT22;1441;48.886;8.728;2022-10-31T09:08:29;14.40;97.80
2867;DHT22;1441;48.886;8.728;2022-10-31T09:10:58;14.50;97.90
2867;DHT22;1441;48.886;8.728;2022-10-31T09:13:24;14.70;97.10
2867;DHT22;1441;48.886;8.728;2022-10-31T09:15:50;14.80;96.40
2867;DHT22;1441;48.886;8.728;2022-10-31T09:18:18;14.90;96.30
2867;DHT22;1441;48.886;8.728;2022-10-31T09:20:46;15.10;95.40
2867;DHT22;1441;48.886;8.728;2022-10-31T09:23:15;15.10;95.20
2867;DHT22;1441;48.886;8.728;2022-10-31T09:25:42;15.20;95.90
2867;DHT22;1441;48.886;8.728;2022-10-31T09:28:10;15.30;95.80
2867;DHT22;1441;48.886;8.728;2022-10-31T09:30:37;15.40;95.80
2867;DHT22;1441;48.886;8.728;2022-10-31T09:33:04;15.50;95.70
2867;DHT22;1441;48.886;8.728;2022-10-31T09:35:30;15.50;95.80
2867;DHT22;1441;48.886;8.728;2022-10-31T09:37:57;15.60;95.50
2867;DHT22;1441;48.886;8.728;2022-10-31T09:40:44;15.60;95.20
2867;DHT22;1441;48.886;8.728;2022-10-31T09:43:32;15.70;95.80
2867;DHT22;1441;48.886;8.728;2022-10-31T09:52:18;16.00;95.20
2867;DHT22;1441;48.886;8.728;2022-10-31T09:57:22;16.30;94.20
2867;DHT22;1441;48.886;8.728;2022-10-31T09:59:50;16.40;94.30
2867;DHT22;1441;48.886;8.728;2022-10-31T10:05:02;16.40;94.20
2867;DHT22;1441;48.886;8.728;2022-10-31T10:10:00;17.00;91.60
2867;DHT22;1441;48.886;8.728;2022-10-31T10:18:18;17.10;92.40
2867;DHT22;1441;48.886;8.728;2022-10-31T10:21:14;17.20;91.50
2867;DHT22;1441;48.886;8.728;2022-10-31T10:26:26;17.50;91.10
2867;DHT22;1441;48.886;8.728;2022-10-31T10:31:49;17.70;90.90
2867;DHT22;1441;48.886;8.728;2022-10-31T10:34:24;17.50;92.50
2867;DHT22;1441;48.886;8.728;2022-10-31T10:37:03;17.40;92.90
2867;DHT22;1441;48.886;8.728;2022-10-31T10:39:35;17.50;92.60
2867;DHT22;1441;48.886;8.728;2022-10-31T10:42:13;17.60;91.60
2867;DHT22;1441;48.886;8.728;2022-10-31T10:44:58;17.70;92.10
2867;DHT22;1441;48.886;8.728;2022-10-31T10:47:56;17.70;92.80
2867;DHT22;1441;48.886;8.728;2022-10-31T10:50:31;17.70;92.70
2867;DHT22;1441;48.886;8.728;2022-10-31T10:53:16;17.60;93.50
2867;DHT22;1441;48.886;8.728;2022-10-31T10:56:08;17.60;93.70
2867;DHT22;1441;48.886;8.728;2022-10-31T10:58:38;17.60;93.90
2867;DHT22;1441;48.886;8.728;2022-10-31T11:01:11;17.70;94.00
2867;DHT22;1441;48.886;8.728;2022-10-31T11:03:37;17.70;94.00
2867;DHT22;1441;48.886;8.728;2022-10-31T11:06:03;17.60;94.50
2867;DHT22;1441;48.886;8.728;2022-10-31T11:08:31;17.60;94.30
2867;DHT22;1441;48.886;8.728;2022-10-31T11:11:09;17.70;94.40
2867;DHT22;1441;48.886;8.728;2022-10-31T11:13:37;17.70;94.20
2867;DHT22;1441;48.886;8.728;2022-10-31T11:16:08;17.80;93.70
2867;DHT22;1441;48.886;8.728;2022-10-31T11:18:39;17.70;93.70
2867;DHT22;1441;48.886;8.728;2022-10-31T11:21:05;17.80;92.90
2867;DHT22;1441;48.886;8.728;2022-10-31T11:23:32;17.70;93.20
2867;DHT22;1441;48.886;8.728;2022-10-31T11:26:03;17.70;93.10
2867;DHT22;1441;48.886;8.728;2022-10-31T11:28:30;17.60;93.20
2867;DHT22;1441;48.886;8.728;2022-10-31T11:30:59;17.60;93.20
2867;DHT22;1441;48.886;8.728;2022-10-31T11:33:32;17.60;93.30
2867;DHT22;1441;48.886;8.728;2022-10-31T11:36:00;17.60;92.90
2867;DHT22;1441;48.886;8.728;2022-10-31T11:38:33;17.60;92.80
2867;DHT22;1441;48.886;8.728;2022-10-31T11:41:12;17.70;92.40
2867;DHT22;1441;48.886;8.728;2022-10-31T11:43:55;17.70;91.90
2867;DHT22;1441;48.886;8.728;2022-10-31T11:48:58;17.90;92.40
2867;DHT22;1441;48.886;8.728;2022-10-31T11:51:26;18.00;92.10
2867;DHT22;1441;48.886;8.728;2022-10-31T11:53:57;18.00;92.80
2867;DHT22;1441;48.886;8.728;2022-10-31T11:56:24;18.10;92.50
2867;DHT22;1441;48.886;8.728;2022-10-31T11:59:02;18.10;92.40
2867;DHT22;1441;48.886;8.728;2022-10-31T12:01:30;18.20;91.20
2867;DHT22;1441;48.886;8.728;2022-10-31T12:04:08;18.20;91.50
2867;DHT22;1441;48.886;8.728;2022-10-31T12:06:41;18.20;91.50
2867;DHT22;1441;48.886;8.728;2022-10-31T12:09:24;18.20;91.60
2867;DHT22;1441;48.886;8.728;2022-10-31T12:20:23;18.60;90.80
2867;DHT22;1441;48.886;8.728;2022-10-31T12:36:39;18.50;91.50
2867;DHT22;1441;48.886;8.728;2022-10-31T12:42:32;18.50;90.80
2867;DHT22;1441;48.886;8.728;2022-10-31T12:45:26;18.60;90.10
2867;DHT22;1441;48.886;8.728;2022-10-31T12:59:20;18.40;91.20
2867;DHT22;1441;48.886;8.728;2022-10-31T13:01:52;18.40;91.00
2867;DHT22;1441;48.886;8.728;2022-10-31T13:04:21;18.40;91.20
2867;DHT22;1441;48.886;8.728;2022-10-31T13:07:00;18.40;91.80
2867;DHT22;1441;48.886;8.728;2022-10-31T13:12:22;18.40;91.80
2867;DHT22;1441;48.886;8.728;2022-10-31T13:14:58;18.30;93.20
2867;DHT22;1441;48.886;8.728;2022-10-31T13:17:34;18.40;93.60
2867;DHT22;1441;48.886;8.728;2022-10-31T13:20:28;18.60;93.10
2867;DHT22;1441;48.886;8.728;2022-10-31T13:23:42;19.00;92.00
2867;DHT22;1441;48.886;8.728;2022-10-31T13:25:46;19.40;91.30
2867;DHT22;1441;48.886;8.728;2022-10-31T13:29:00;19.70;90.30
2867;DHT22;1441;48.886;8.728;2022-10-31T13:31:22;19.90;88.80
2867;DHT22;1441;48.886;8.728;2022-10-31T13:33:53;19.90;88.90
2867;DHT22;1441;48.886;8.728;2022-10-31T13:36:36;20.00;88.10
2867;DHT22;1441;48.886;8.728;2022-10-31T13:44:36;19.60;89.50
2867;DHT22;1441;48.886;8.728;2022-10-31T13:49:45;19.30;89.80
2867;DHT22;1441;48.886;8.728;2022-10-31T13:54:40;19.10;90.20
2867;DHT22;1441;48.886;8.728;2022-10-31T13:57:19;19.10;90.00
2867;DHT22;1441;48.886;8.728;2022-10-31T13:59:54;19.10;90.20
2867;DHT22;1441;48.886;8.728;2022-10-31T14:02:27;19.20;90.20
2867;DHT22;1441;48.886;8.728;2022-10-31T14:07:45;19.00;90.30
2867;DHT22;1441;48.886;8.728;2022-10-31T14:10:31;18.90;90.60
2867;DHT22;1441;48.886;8.728;2022-10-31T14:16:18;18.90;90.50
2867;DHT22;1441;48.886;8.728;2022-10-31T14:18:50;18.90;90.80
2867;DHT22;1441;48.886;8.728;2022-10-31T14:23:53;18.90;91.60
2867;DHT22;1441;48.886;8.728;2022-10-31T14:34:26;19.00;90.70
2867;DHT22;1441;48.886;8.728;2022-10-31T14:50:59;18.80;92.40
2867;DHT22;1441;48.886;8.728;2022-10-31T14:53:11;18.70;92.00
2867;DHT22;1441;48.886;8.728;2022-10-31T14:55:43;18.50;93.10
2867;DHT22;1441;48.886;8.728;2022-10-31T14:58:17;18.40;93.40
2867;DHT22;1441;48.886;8.728;2022-10-31T15:00:44;18.40;93.30
2867;DHT22;1441;48.886;8.728;2022-10-31T15:05:50;18.20;94.60
2867;DHT22;1441;48.886;8.728;2022-10-31T15:08:33;18.10;94.50
2867;DHT22;1441;48.886;8.728;2022-10-31T15:11:03;18.00;94.60
2867;DHT22;1441;48.886;8.728;2022-10-31T15:13:29;17.90;95.10
2867;DHT22;1441;48.886;8.728;2022-10-31T15:15:55;18.00;94.70
2867;DHT22;1441;48.886;8.728;2022-10-31T15:18:26;18.00;94.40
2867;DHT22;1441;48.886;8.728;2022-10-31T15:20:54;17.70;96.30
2867;DHT22;1441;48.886;8.728;2022-10-31T15:23:26;17.60;96.50
2867;DHT22;1441;48.886;8.728;2022-10-31T15:26:00;17.60;96.00
2867;DHT22;1441;48.886;8.728;2022-10-31T15:28:26;17.50;97.00
2867;DHT22;1441;48.886;8.728;2022-10-31T15:30:57;17.60;96.70
2867;DHT22;1441;48.886;8.728;2022-10-31T15:33:28;17.90;95.30
2867;DHT22;1441;48.886;8.728;2022-10-31T15:35:59;18.00;95.10
2867;DHT22;1441;48.886;8.728;2022-10-31T15:38:26;18.10;94.70
2867;DHT22;1441;48.886;8.728;2022-10-31T15:40:59;18.00;94.60
2867;DHT22;1441;48.886;8.728;2022-10-31T15:43:29;17.90;95.20
2867;DHT22;1441;48.886;8.728;2022-10-31T15:45:57;17.80;95.80
2867;DHT22;1441;48.886;8.728;2022-10-31T15:48:24;17.70;96.20
2867;DHT22;1441;48.886;8.728;2022-10-31T15:50:53;17.50;96.60
2867;DHT22;1441;48.886;8.728;2022-10-31T15:53:24;17.50;96.90
2867;DHT22;1441;48.886;8.728;2022-10-31T15:55:57;17.40;97.20
2867;DHT22;1441;48.886;8.728;2022-10-31T15:58:25;17.30;97.50
2867;DHT22;1441;48.886;8.728;2022-10-31T16:01:05;17.30;97.50
2867;DHT22;1441;48.886;8.728;2022-10-31T16:03:32;17.20;97.90
2867;DHT22;1441;48.886;8.728;2022-10-31T16:06:00;17.20;97.80
2867;DHT22;1441;48.886;8.728;2022-10-31T16:10:56;17.10;98.20
2867;DHT22;1441;48.886;8.728;2022-10-31T16:13:26;17.00;98.40
2867;DHT22;1441;48.886;8.728;2022-10-31T16:15:56;16.90;98.70
2867;DHT22;1441;48.886;8.728;2022-10-31T16:18:24;16.90;98.90
2867;DHT22;1441;48.886;8.728;2022-10-31T16:20:52;16.70;99.50
2867;DHT22;1441;48.886;8.728;2022-10-31T16:23:19;16.60;99.90
2867;DHT22;1441;48.886;8.728;2022-10-31T16:25:47;16.70;99.80
2867;DHT22;1441;48.886;8.728;2022-10-31T16:28:18;16.50;99.90
2867;DHT22;1441;48.886;8.728;2022-10-31T16:30:46;16.50;99.90
2867;DHT22;1441;48.886;8.728;2022-10-31T16:33:34;16.30;99.90
2867;DHT22;1441;48.886;8.728;2022-10-31T16:36:33;16.20;99.90
2867;DHT22;1441;48.886;8.728;2022-10-31T16:39:00;16.20;99.90
2867;DHT22;1441;48.886;8.728;2022-10-31T16:41:26;16.10;99.90
2867;DHT22;1441;48.886;8.728;2022-10-31T16:43:52;15.90;99.90
2867;DHT22;1441;48.886;8.728;2022-10-31T16:46:25;15.90;99.90
2867;DHT22;1441;48.886;8.728;2022-10-31T16:48:52;15.80;99.90
2867;DHT22;1441;48.886;8.728;2022-10-31T16:51:18;15.70;99.90
2867;DHT22;1441;48.886;8.728;2022-10-31T16:53:44;15.70;99.90
2867;DHT22;1441;48.886;8.728;2022-10-31T16:56:30;15.90;99.90
2867;DHT22;1441;48.886;8.728;2022-10-31T16:58:59;16.20;99.90
2867;DHT22;1441;48.886;8.728;2022-10-31T17:01:26;16.30;99.90
2867;DHT22;1441;48.886;8.728;2022-10-31T17:03:53;16.40;99.90
2867;DHT22;1441;48.886;8.728;2022-10-31T17:06:18;16.40;99.90
2867;DHT22;1441;48.886;8.728;2022-10-31T17:08:44;16.20;99.90
2867;DHT22;1441;48.886;8.728;2022-10-31T17:11:20;16.10;99.90
2867;DHT22;1441;48.886;8.728;2022-10-31T17:13:46;16.30;99.90
2867;DHT22;1441;48.886;8.728;2022-10-31T17:16:13;16.40;99.90
2867;DHT22;1441;48.886;8.728;2022-10-31T17:18:39;16.30;99.90
2867;DHT22;1441;48.886;8.728;2022-10-31T17:21:05;16.20;99.90
2867;DHT22;1441;48.886;8.728;2022-10-31T17:23:31;16.20;99.90
2867;DHT22;1441;48.886;8.728;2022-10-31T17:25:58;16.20;99.90
2867;DHT22;1441;48.886;8.728;2022-10-31T17:28:24;16.20;99.90
2867;DHT22;1441;48.886;8.728;2022-10-31T17:30:52;16.30;99.90
2867;DHT22;1441;48.886;8.728;2022-10-31T17:33:18;16.30;99.90
2867;DHT22;1441;48.886;8.728;2022-10-31T17:35:44;16.10;99.90
2867;DHT22;1441;48.886;8.728;2022-10-31T17:38:10;15.90;99.90
2867;DHT22;1441;48.886;8.728;2022-10-31T17:40:37;15.90;99.90
2867;DHT22;1441;48.886;8.728;2022-10-31T17:43:04;16.20;99.90
2867;DHT22;1441;48.886;8.728;2022-10-31T17:45:29;16.40;99.90
2867;DHT22;1441;48.886;8.728;2022-10-31T17:47:55;16.40;99.90
2867;DHT22;1441;48.886;8.728;2022-10-31T17:50:23;16.40;99.90
2867;DHT22;1441;48.886;8.728;2022-10-31T17:52:49;16.50;99.50
2867;DHT22;1441;48.886;8.728;2022-10-31T17:55:16;16.30;99.90
2867;DHT22;1441;48.886;8.728;2022-10-31T17:57:42;16.10;99.90
2867;DHT22;1441;48.886;8.728;2022-10-31T18:00:16;15.90;99.90
2867;DHT22;1441;48.886;8.728;2022-10-31T18:02:42;15.60;99.90
2867;DHT22;1441;48.886;8.728;2022-10-31T18:05:08;15.60;99.90
2867;DHT22;1441;48.886;8.728;2022-10-31T18:07:35;15.70;99.90
2867;DHT22;1441;48.886;8.728;2022-10-31T18:10:00;15.60;99.90
2867;DHT22;1441;48.886;8.728;2022-10-31T18:12:26;15.40;99.90
2867;DHT22;1441;48.886;8.728;2022-10-31T18:14:53;15.30;99.90
2867;DHT22;1441;48.886;8.728;2022-10-31T18:17:19;15.20;99.90
2867;DHT22;1441;48.886;8.728;2022-10-31T18:19:44;15.30;99.90
2867;DHT22;1441;48.886;8.728;2022-10-31T18:22:11;15.30;99.90
2867;DHT22;1441;48.886;8.728;2022-10-31T18:24:37;15.20;99.90
2867;DHT22;1441;48.886;8.728;2022-10-31T18:27:03;15.20;99.90
2867;DHT22;1441;48.886;8.728;2022-10-31T18:29:28;15.20;99.90
2867;DHT22;1441;48.886;8.728;2022-10-31T18:31:54;15.30;99.90